Time;durP1;ratioP1;P1;durP2;ratioP2;P2;SDS_P1;SDS_P2;PMS_P1;PMS_P2;Temp;Humidity;BMP_temperature;BMP_pressure;BME280_temperature;BME280_humidity;BME280_pressure;Samples;Min_cycle;Max_cycle;Signal;HPM_P1;HPM_P2
2023/06/14 00:02:12;;;;;;;3.03;1.85;;;;;;;;;;5079621;28;20193;-83
2023/06/14 00:04:41;;;;;;;1.73;1.63;;;;;;;;;;5079362;28;20232;-84
2023/06/14 00:07:10;;;;;;;2.05;1.90;;;;;;;;;;5080132;28;20645;-84
2023/06/14 00:09:37;;;;;;;1.70;1.60;;;;;;;;;;5079791;28;20239;-84
2023/06/14 00:12:06;;;;;;;1.48;1.30;;;;;;;;;;5080477;28;20236;-84
2023/06/14 00:14:33;;;;;;;1.40;1.30;;;;;;;;;;5079511;28;20237;-84
2023/06/14 00:17:01;;;;;;;1.88;1.30;;;;;;;;;;5079704;28;20256;-84
2023/06/14 00:19:30;;;;;;;1.25;1.15;;;;;;;;;;5079395;28;20204;-84
2023/06/14 00:21:58;;;;;;;1.45;1.35;;;;;;;;;;5079596;28;20201;-85
2023/06/14 00:24:26;;;;;;;1.63;1.52;;;;;;;;;;5079754;28;20228;-83
2023/06/14 00:26:55;;;;;;;1.30;1.20;;;;;;;;;;5079977;28;20258;-84
2023/06/14 00:29:22;;;;;;;1.52;1.42;;;;;;;;;;5079111;28;20212;-85
2023/06/14 00:31:50;;;;;;;1.70;1.60;;;;;;;;;;5077766;28;20219;-85
2023/06/14 00:34:17;;;;;;;1.52;1.42;;;;;;;;;;5078781;28;20225;-85
2023/06/14 00:36:45;;;;;;;1.63;1.52;;;;;;;;;;5078462;28;20315;-85
2023/06/14 00:39:12;;;;;;;1.17;1.02;;;;;;;;;;5079220;28;20662;-84
2023/06/14 00:41:41;;;;;;;3.08;1.60;;;;;;;;;;5078316;28;20204;-84
2023/06/14 00:44:09;;;;;;;1.33;1.23;;;;;;;;;;5079517;28;20229;-84
2023/06/14 00:46:36;;;;;;;1.42;1.33;;;;;;;;;;5079466;28;20585;-85
2023/06/14 00:49:04;;;;;;;1.65;1.30;;;;;;;;;;5079802;28;20624;-84
2023/06/14 00:51:32;;;;;;;1.50;1.40;;;;;;;;;;5079280;28;20723;-84
2023/06/14 00:54:00;;;;;;;2.08;1.50;;;;;;;;;;5078915;28;20239;-85
2023/06/14 00:56:29;;;;;;;1.85;1.75;;;;;;;;;;5079311;28;20233;-85
2023/06/14 00:58:58;;;;;;;1.70;1.60;;;;;;;;;;5079307;28;20303;-84
2023/06/14 01:01:26;;;;;;;1.70;1.60;;;;;;;;;;5078947;28;20193;-84
2023/06/14 01:03:53;;;;;;;1.65;1.40;;;;;;;;;;5078886;28;20228;-84
2023/06/14 01:06:30;;;;;;;2.15;2.05;;;;;;;;;;5078878;28;20312;-84
2023/06/14 01:09:08;;;;;;;1.88;1.60;;;;;;;;;;5078763;28;20205;-84
2023/06/14 01:11:42;;;;;;;1.50;1.40;;;;;;;;;;5079831;28;20189;-85
2023/06/14 01:14:12;;;;;;;1.58;1.38;;;;;;;;;;5080579;28;20288;-85
2023/06/14 01:16:41;;;;;;;1.05;1.05;;;;;;;;;;5079448;28;20229;-84
2023/06/14 01:19:13;;;;;;;1.45;1.35;;;;;;;;;;5079041;28;20208;-83
2023/06/14 01:21:42;;;;;;;1.77;1.67;;;;;;;;;;5079021;28;20186;-84
2023/06/14 01:24:11;;;;;;;2.42;1.33;;;;;;;;;;5079793;28;20201;-84
2023/06/14 01:26:45;;;;;;;1.58;1.48;;;;;;;;;;5079370;28;20299;-84
2023/06/14 01:29:16;;;;;;;2.08;1.77;;;;;;;;;;5078644;28;20199;-84
2023/06/14 01:31:45;;;;;;;1.55;1.45;;;;;;;;;;5081298;28;20227;-85
2023/06/14 01:34:13;;;;;;;1.50;1.40;;;;;;;;;;5083279;28;20189;-84
2023/06/14 01:36:43;;;;;;;1.73;1.50;;;;;;;;;;5081507;28;20256;-84
2023/06/14 01:39:15;;;;;;;1.67;1.55;;;;;;;;;;5083987;28;20185;-84
2023/06/14 01:41:43;;;;;;;1.55;1.40;;;;;;;;;;5081306;28;20190;-85
2023/06/14 01:44:11;;;;;;;1.52;1.40;;;;;;;;;;5079724;28;20205;-85
2023/06/14 01:46:38;;;;;;;1.30;1.20;;;;;;;;;;5081150;28;20249;-84
2023/06/14 01:49:06;;;;;;;1.45;1.35;;;;;;;;;;5080594;28;20242;-85
2023/06/14 01:51:33;;;;;;;1.10;1.10;;;;;;;;;;5081399;28;20718;-84
2023/06/14 01:54:01;;;;;;;1.92;1.83;;;;;;;;;;5081131;28;20232;-84
2023/06/14 01:56:30;;;;;;;1.75;1.52;;;;;;;;;;5082285;28;20317;-85
2023/06/14 01:58:58;;;;;;;1.60;1.45;;;;;;;;;;5080849;28;20220;-84
2023/06/14 02:01:26;;;;;;;1.35;1.25;;;;;;;;;;5080955;28;20288;-85
2023/06/14 02:03:54;;;;;;;1.45;1.35;;;;;;;;;;5081670;28;20193;-84
2023/06/14 02:06:21;;;;;;;1.98;1.35;;;;;;;;;;5081085;28;20217;-85
2023/06/14 02:08:49;;;;;;;1.42;1.33;;;;;;;;;;5080988;28;20209;-85
2023/06/14 02:11:17;;;;;;;1.42;1.33;;;;;;;;;;5081385;28;20208;-84
2023/06/14 02:13:46;;;;;;;1.60;1.50;;;;;;;;;;5080745;28;20240;-84
2023/06/14 02:16:14;;;;;;;1.48;1.35;;;;;;;;;;5080646;28;20673;-84
2023/06/14 02:18:41;;;;;;;1.60;1.50;;;;;;;;;;5080704;28;20661;-84
2023/06/14 02:21:09;;;;;;;1.27;1.20;;;;;;;;;;5081595;28;20709;-85
2023/06/14 02:23:37;;;;;;;1.45;1.35;;;;;;;;;;5080855;28;20201;-85
2023/06/14 02:26:04;;;;;;;2.10;1.90;;;;;;;;;;5080436;28;20201;-84
2023/06/14 02:28:32;;;;;;;1.13;1.13;;;;;;;;;;5080174;28;20256;-84
2023/06/14 02:31:01;;;;;;;1.10;1.10;;;;;;;;;;5080008;28;20196;-83
2023/06/14 02:33:28;;;;;;;1.52;1.08;;;;;;;;;;5079687;28;20308;-85
2023/06/14 02:35:56;;;;;;;1.25;1.15;;;;;;;;;;5078152;28;20221;-84
2023/06/14 02:38:23;;;;;;;3.03;1.30;;;;;;;;;;5078752;28;20245;-85
2023/06/14 02:40:51;;;;;;;1.42;1.33;;;;;;;;;;5079222;28;20288;-84
2023/06/14 02:43:18;;;;;;;2.13;1.80;;;;;;;;;;5078178;28;20641;-85
2023/06/14 02:45:46;;;;;;;1.50;1.40;;;;;;;;;;5079625;28;20220;-84
2023/06/14 02:48:15;;;;;;;1.77;1.40;;;;;;;;;;5079436;28;20197;-83
2023/06/14 02:50:42;;;;;;;1.60;1.50;;;;;;;;;;5079394;28;20288;-84
2023/06/14 02:53:10;;;;;;;1.48;1.38;;;;;;;;;;5079147;28;20304;-83
2023/06/14 02:55:39;;;;;;;1.52;1.30;;;;;;;;;;5079402;28;20859;-84
2023/06/14 02:58:07;;;;;;;1.30;1.20;;;;;;;;;;5079148;28;20216;-84
2023/06/14 03:00:35;;;;;;;1.35;1.25;;;;;;;;;;5080044;28;20236;-83
2023/06/14 03:03:02;;;;;;;1.40;1.30;;;;;;;;;;5079160;28;20197;-82
2023/06/14 03:05:32;;;;;;;1.75;1.63;;;;;;;;;;5079302;28;20252;-83
2023/06/14 03:08:00;;;;;;;1.38;1.30;;;;;;;;;;5079128;28;20181;-83
2023/06/14 03:10:28;;;;;;;1.48;1.38;;;;;;;;;;5079042;28;20201;-83
2023/06/14 03:12:56;;;;;;;2.33;1.70;;;;;;;;;;5079560;28;20205;-83
2023/06/14 03:15:24;;;;;;;1.35;1.27;;;;;;;;;;5078566;28;20228;-83
2023/06/14 03:17:53;;;;;;;1.40;1.30;;;;;;;;;;5078793;28;20225;-82
2023/06/14 03:20:21;;;;;;;1.13;1.13;;;;;;;;;;5079091;28;20260;-83
2023/06/14 03:22:50;;;;;;;1.13;1.13;;;;;;;;;;5081113;28;20200;-85
2023/06/14 03:25:18;;;;;;;1.77;1.50;;;;;;;;;;5078935;28;20221;-84
2023/06/14 03:27:46;;;;;;;1.33;1.23;;;;;;;;;;5077285;28;20197;-84
2023/06/14 03:30:14;;;;;;;2.05;1.13;;;;;;;;;;5078299;28;20211;-84
2023/06/14 03:32:41;;;;;;;1.40;1.30;;;;;;;;;;5078538;28;20197;-84
2023/06/14 03:35:16;;;;;;;1.40;1.30;;;;;;;;;;5077667;28;20248;-84
2023/06/14 03:37:44;;;;;;;1.40;1.30;;;;;;;;;;5077487;28;20299;-83
2023/06/14 03:40:16;;;;;;;1.20;1.15;;;;;;;;;;5077549;28;20200;-83
2023/06/14 03:42:43;;;;;;;1.30;1.20;;;;;;;;;;5078497;28;20622;-83
2023/06/14 03:45:11;;;;;;;1.17;1.13;;;;;;;;;;5079596;28;20311;-84
2023/06/14 03:47:38;;;;;;;1.33;1.30;;;;;;;;;;5077930;28;20284;-84
2023/06/14 03:50:07;;;;;;;1.52;1.30;;;;;;;;;;5078070;28;20197;-84
2023/06/14 03:52:35;;;;;;;1.60;1.50;;;;;;;;;;5078764;28;20554;-85
2023/06/14 03:55:02;;;;;;;2.95;1.40;;;;;;;;;;5078072;28;20227;-84
2023/06/14 03:57:32;;;;;;;1.58;1.48;;;;;;;;;;5077503;28;20217;-84
2023/06/14 03:59:59;;;;;;;1.60;1.50;;;;;;;;;;5079648;28;20264;-83
2023/06/14 04:02:28;;;;;;;1.75;1.65;;;;;;;;;;5080127;28;20251;-83
2023/06/14 04:04:56;;;;;;;1.55;1.42;;;;;;;;;;5080102;28;20307;-83
2023/06/14 04:07:24;;;;;;;1.63;1.52;;;;;;;;;;5081712;28;20698;-84
2023/06/14 04:09:52;;;;;;;2.95;1.65;;;;;;;;;;5079909;28;20673;-83
2023/06/14 04:12:20;;;;;;;2.25;1.23;;;;;;;;;;5079192;28;20296;-84
2023/06/14 04:14:49;;;;;;;1.83;1.33;;;;;;;;;;5078814;28;20208;-83
2023/06/14 04:17:17;;;;;;;1.30;1.20;;;;;;;;;;5078616;28;20200;-84
2023/06/14 04:19:44;;;;;;;1.30;1.17;;;;;;;;;;5078175;28;20232;-83
2023/06/14 04:22:12;;;;;;;1.83;1.52;;;;;;;;;;5079480;28;20273;-85
2023/06/14 04:24:39;;;;;;;1.35;1.25;;;;;;;;;;5076056;28;20205;-85
2023/06/14 04:27:07;;;;;;;1.50;1.40;;;;;;;;;;5077725;28;20621;-85
2023/06/14 04:29:34;;;;;;;1.90;1.75;;;;;;;;;;5079487;28;20279;-85
2023/06/14 04:32:04;;;;;;;1.88;1.65;;;;;;;;;;5078525;28;20723;-84
2023/06/14 04:34:33;;;;;;;1.17;1.05;;;;;;;;;;5079305;28;20871;-85
2023/06/14 04:37:01;;;;;;;2.20;1.42;;;;;;;;;;5078439;28;20716;-85
2023/06/14 04:39:29;;;;;;;1.40;1.30;;;;;;;;;;5077755;28;20216;-83
2023/06/14 04:42:00;;;;;;;1.77;1.67;;;;;;;;;;5078563;28;20201;-84
2023/06/14 04:44:31;;;;;;;1.58;1.48;;;;;;;;;;5079047;28;20197;-84
2023/06/14 04:46:59;;;;;;;1.48;1.38;;;;;;;;;;5078285;28;20193;-84
2023/06/14 04:49:32;;;;;;;1.00;1.00;;;;;;;;;;5078834;28;20207;-84
2023/06/14 04:52:01;;;;;;;1.55;1.17;;;;;;;;;;5078979;28;20185;-85
2023/06/14 04:54:31;;;;;;;1.80;1.60;;;;;;;;;;5078298;28;20197;-83
2023/06/14 04:56:58;;;;;;;2.55;1.67;;;;;;;;;;5079266;28;20219;-83
2023/06/14 04:59:26;;;;;;;1.50;1.40;;;;;;;;;;5078460;28;20252;-84
2023/06/14 05:01:56;;;;;;;1.10;1.10;;;;;;;;;;5078507;28;20197;-83
2023/06/14 05:04:25;;;;;;;1.20;1.20;;;;;;;;;;5078001;28;20197;-84
2023/06/14 05:06:54;;;;;;;2.55;1.50;;;;;;;;;;5082021;28;20233;-84
2023/06/14 05:09:22;;;;;;;1.63;1.52;;;;;;;;;;5083210;28;20391;-84
2023/06/14 05:11:50;;;;;;;2.95;1.65;;;;;;;;;;5082947;28;20649;-84
2023/06/14 05:14:18;;;;;;;1.92;1.60;;;;;;;;;;5083780;28;20191;-85
2023/06/14 05:16:46;;;;;;;3.45;3.15;;;;;;;;;;5083439;28;20235;-84
2023/06/14 05:19:14;;;;;;;1.52;1.42;;;;;;;;;;5083797;28;20228;-84
2023/06/14 05:21:41;;;;;;;1.48;1.38;;;;;;;;;;5083107;28;20213;-85
2023/06/14 05:24:11;;;;;;;1.60;1.50;;;;;;;;;;5081273;28;20237;-85
2023/06/14 05:26:38;;;;;;;1.25;1.20;;;;;;;;;;5082972;28;20220;-84
2023/06/14 05:29:06;;;;;;;1.70;1.60;;;;;;;;;;5082527;28;20224;-84
2023/06/14 05:31:33;;;;;;;1.77;1.63;;;;;;;;;;5082395;28;20740;-85
2023/06/14 05:34:01;;;;;;;1.95;1.50;;;;;;;;;;5081575;28;20280;-83
2023/06/14 05:36:28;;;;;;;1.83;1.67;;;;;;;;;;5083184;28;20245;-84
2023/06/14 05:38:57;;;;;;;1.90;1.80;;;;;;;;;;5081861;28;20787;-84
2023/06/14 05:41:27;;;;;;;2.08;1.90;;;;;;;;;;5088436;28;20269;-85
2023/06/14 05:43:56;;;;;;;1.98;1.70;;;;;;;;;;5088158;28;20243;-83
2023/06/14 05:46:25;;;;;;;1.42;1.33;;;;;;;;;;5087491;28;20217;-85
2023/06/14 05:48:52;;;;;;;1.45;1.35;;;;;;;;;;5084885;28;20564;-85
2023/06/14 05:51:20;;;;;;;1.40;1.30;;;;;;;;;;5085386;28;20673;-84
2023/06/14 05:53:48;;;;;;;1.60;1.50;;;;;;;;;;5085929;28;20232;-85
2023/06/14 05:56:17;;;;;;;1.77;1.65;;;;;;;;;;5086474;28;20280;-84
2023/06/14 05:58:46;;;;;;;2.63;1.42;;;;;;;;;;5087669;28;20601;-85
2023/06/14 06:01:14;;;;;;;1.50;1.40;;;;;;;;;;5086800;28;20240;-84
2023/06/14 06:03:45;;;;;;;1.02;1.02;;;;;;;;;;5086225;28;20287;-85
2023/06/14 06:06:13;;;;;;;2.10;1.40;;;;;;;;;;5086789;28;20227;-84
2023/06/14 06:08:41;;;;;;;1.70;1.60;;;;;;;;;;5087922;28;20181;-84
2023/06/14 06:11:08;;;;;;;1.90;1.70;;;;;;;;;;5088270;28;20197;-86
2023/06/14 06:13:36;;;;;;;4.00;1.60;;;;;;;;;;5087937;28;20635;-85
2023/06/14 06:16:11;;;;;;;2.33;1.70;;;;;;;;;;5088008;28;20236;-85
2023/06/14 06:18:38;;;;;;;2.30;2.10;;;;;;;;;;5085961;28;20592;-85
2023/06/14 06:21:06;;;;;;;1.55;1.45;;;;;;;;;;5085656;28;20220;-85
2023/06/14 06:23:35;;;;;;;2.08;1.88;;;;;;;;;;5086017;28;20205;-85
2023/06/14 06:26:02;;;;;;;1.92;1.83;;;;;;;;;;5084693;28;20213;-85
2023/06/14 06:28:30;;;;;;;2.35;2.20;;;;;;;;;;5084491;28;20287;-84
2023/06/14 06:30:57;;;;;;;1.70;1.60;;;;;;;;;;5086429;28;20224;-84
2023/06/14 06:33:26;;;;;;;1.80;1.70;;;;;;;;;;5085734;28;20237;-83
2023/06/14 06:35:54;;;;;;;2.40;1.85;;;;;;;;;;5084568;28;20251;-85
2023/06/14 06:38:21;;;;;;;2.78;1.80;;;;;;;;;;5085238;28;20223;-85
2023/06/14 06:40:49;;;;;;;2.08;1.88;;;;;;;;;;5086554;28;20650;-86
2023/06/14 06:43:17;;;;;;;1.95;1.85;;;;;;;;;;5085587;28;20208;-83
2023/06/14 06:45:45;;;;;;;3.97;2.13;;;;;;;;;;5084735;28;20225;-84
2023/06/14 06:48:12;;;;;;;2.08;1.92;;;;;;;;;;5084821;28;20197;-83
2023/06/14 06:50:41;;;;;;;4.50;2.22;;;;;;;;;;5085218;28;20196;-83
2023/06/14 06:53:09;;;;;;;2.33;2.13;;;;;;;;;;5084994;28;20565;-83
2023/06/14 06:55:36;;;;;;;2.15;1.95;;;;;;;;;;5085000;28;20261;-84
2023/06/14 06:58:05;;;;;;;2.92;2.60;;;;;;;;;;5085520;28;20265;-85
2023/06/14 07:00:32;;;;;;;3.00;2.28;;;;;;;;;;5083527;28;20565;-85
2023/06/14 07:03:00;;;;;;;2.50;2.30;;;;;;;;;;5083636;28;20181;-85
2023/06/14 07:05:27;;;;;;;1.98;1.80;;;;;;;;;;5082577;28;20286;-85
2023/06/14 07:07:56;;;;;;;2.60;2.28;;;;;;;;;;5082220;28;20228;-84
2023/06/14 07:10:24;;;;;;;1.92;1.83;;;;;;;;;;5081591;28;20211;-86
2023/06/14 07:12:52;;;;;;;2.33;2.13;;;;;;;;;;5083750;28;20670;-85
2023/06/14 07:15:19;;;;;;;2.13;1.92;;;;;;;;;;5081276;28;20249;-85
2023/06/14 07:17:47;;;;;;;3.58;2.20;;;;;;;;;;5081860;28;20571;-85
2023/06/14 07:20:16;;;;;;;2.67;2.47;;;;;;;;;;5081886;28;20315;-84
2023/06/14 07:22:44;;;;;;;3.67;2.60;;;;;;;;;;5083073;28;20200;-84
2023/06/14 07:25:14;;;;;;;2.50;2.30;;;;;;;;;;5081477;28;20694;-84
2023/06/14 07:27:42;;;;;;;3.10;2.80;;;;;;;;;;5083747;28;20192;-83
2023/06/14 07:30:11;;;;;;;4.63;2.10;;;;;;;;;;5081225;28;20265;-83
2023/06/14 07:32:38;;;;;;;2.65;2.45;;;;;;;;;;5082419;28;20209;-85
2023/06/14 07:35:07;;;;;;;2.60;2.38;;;;;;;;;;5100580;28;20934;-84
2023/06/14 07:37:35;;;;;;;2.90;2.70;;;;;;;;;;5099349;28;20211;-84
2023/06/14 07:40:06;;;;;;;2.25;2.05;;;;;;;;;;5098047;28;20231;-84
2023/06/14 07:42:36;;;;;;;2.47;2.28;;;;;;;;;;5100888;28;20212;-84
2023/06/14 07:45:04;;;;;;;2.97;2.58;;;;;;;;;;5086852;28;20728;-84
2023/06/14 07:47:31;;;;;;;3.08;2.47;;;;;;;;;;5079497;28;20212;-86
2023/06/14 07:49:59;;;;;;;2.30;2.10;;;;;;;;;;5079875;28;20197;-86
2023/06/14 07:52:26;;;;;;;2.65;2.45;;;;;;;;;;5079398;28;20208;-83
2023/06/14 07:54:54;;;;;;;2.03;1.92;;;;;;;;;;5079741;28;20281;-84
2023/06/14 07:57:21;;;;;;;2.88;2.67;;;;;;;;;;5079124;28;20209;-84
2023/06/14 07:59:51;;;;;;;2.55;2.08;;;;;;;;;;5079536;28;20224;-86
2023/06/14 08:02:18;;;;;;;2.47;2.28;;;;;;;;;;5079387;28;20723;-84
2023/06/14 08:04:46;;;;;;;4.00;2.28;;;;;;;;;;5077194;28;20221;-85
2023/06/14 08:07:14;;;;;;;2.45;2.15;;;;;;;;;;5077286;28;20204;-85
2023/06/14 08:09:41;;;;;;;10.50;3.85;;;;;;;;;;5078103;28;20343;-86
2023/06/14 08:12:10;;;;;;;2.42;2.22;;;;;;;;;;5081959;28;20232;-84
2023/06/14 08:14:38;;;;;;;2.63;2.42;;;;;;;;;;5077639;28;20211;-84
2023/06/14 08:17:07;;;;;;;2.85;2.42;;;;;;;;;;5078350;28;20300;-83
2023/06/14 08:19:36;;;;;;;2.47;2.28;;;;;;;;;;5079862;28;20693;-84
2023/06/14 08:48:25;;;;;;;1.75;1.65;;;;;;;;;;5076512;28;20192;-85
2023/06/14 08:50:52;;;;;;;3.60;2.63;;;;;;;;;;5081255;28;20233;-86
2023/06/14 08:53:20;;;;;;;2.65;2.45;;;;;;;;;;5082516;28;20209;-83
2023/06/14 08:59:31;;;;;;;2.13;1.95;;;;;;;;;;5074078;28;20680;-82
2023/06/14 09:02:00;;;;;;;2.80;2.10;;;;;;;;;;5081288;28;20232;-81
2023/06/14 09:04:29;;;;;;;2.58;2.38;;;;;;;;;;5083378;28;20618;-83
2023/06/14 09:06:58;;;;;;;2.63;2.42;;;;;;;;;;5084553;28;20197;-82
2023/06/14 09:09:25;;;;;;;2.30;2.10;;;;;;;;;;5080421;28;20262;-82
2023/06/14 09:23:05;;;;;;;2.78;1.80;;;;;;;;;;5079264;28;20192;-82
2023/06/14 09:25:32;;;;;;;2.33;2.13;;;;;;;;;;5081339;28;20227;-82
2023/06/14 09:28:00;;;;;;;1.73;1.63;;;;;;;;;;5081037;28;20271;-82
2023/06/14 09:30:27;;;;;;;2.53;1.70;;;;;;;;;;5080809;28;20292;-83
2023/06/14 09:32:55;;;;;;;2.13;1.95;;;;;;;;;;5081551;28;20232;-83
2023/06/14 09:35:22;;;;;;;2.35;2.15;;;;;;;;;;5085160;28;20364;-82
2023/06/14 09:37:50;;;;;;;2.15;1.95;;;;;;;;;;5080891;28;20300;-80
2023/06/14 09:40:22;;;;;;;2.00;1.90;;;;;;;;;;5081939;28;20660;-84
2023/06/14 09:42:49;;;;;;;1.92;1.83;;;;;;;;;;5080952;28;20207;-84
2023/06/14 09:45:21;;;;;;;2.88;2.22;;;;;;;;;;5072121;28;20244;-83
2023/06/14 09:47:51;;;;;;;2.60;2.40;;;;;;;;;;5080966;28;20245;-83
2023/06/14 09:50:18;;;;;;;2.47;1.90;;;;;;;;;;5081049;28;20567;-84
2023/06/14 09:52:46;;;;;;;2.30;2.20;;;;;;;;;;5081061;28;20240;-82
2023/06/14 09:55:14;;;;;;;2.70;2.30;;;;;;;;;;5081650;28;20217;-84
2023/06/14 09:57:45;;;;;;;2.20;2.00;;;;;;;;;;5081159;28;20201;-83
2023/06/14 10:00:15;;;;;;;2.40;2.10;;;;;;;;;;5081027;28;20264;-85
2023/06/14 10:02:47;;;;;;;2.22;2.03;;;;;;;;;;5081660;28;20237;-84
2023/06/14 10:05:17;;;;;;;2.10;2.00;;;;;;;;;;5081068;28;20236;-83
2023/06/14 10:07:53;;;;;;;2.17;2.08;;;;;;;;;;5081108;28;20248;-84
2023/06/14 10:10:21;;;;;;;2.40;2.20;;;;;;;;;;5081795;28;20256;-83
2023/06/14 10:12:50;;;;;;;2.10;2.00;;;;;;;;;;5081848;28;20220;-84
2023/06/14 10:15:23;;;;;;;2.90;2.50;;;;;;;;;;5080722;28;20253;-84
2023/06/14 10:17:57;;;;;;;2.85;2.25;;;;;;;;;;5081603;28;20227;-84
2023/06/14 10:43:37;;;;;;;2.30;2.20;;;;;;;;;;5075611;28;20230;-84
2023/06/14 10:49:52;;;;;;;2.47;2.28;;;;;;;;;;5082832;28;20247;-85
2023/06/14 10:52:27;;;;;;;2.00;1.83;;;;;;;;;;5085013;28;20225;-84
2023/06/14 10:55:06;;;;;;;3.47;3.28;;;;;;;;;;5083466;28;20223;-84
2023/06/14 10:57:35;;;;;;;7.15;3.17;;;;;;;;;;5063175;28;20190;-84
2023/06/14 11:03:37;;;;;;;2.53;2.33;;;;;;;;;;5062585;28;20221;-84
2023/06/14 11:06:15;;;;;;;2.50;2.30;;;;;;;;;;5060945;28;20224;-85
2023/06/14 11:09:37;;;;;;;4.70;3.22;;;;;;;;;;5062822;28;20631;-86
2023/06/14 11:12:06;;;;;;;2.35;2.15;;;;;;;;;;5074525;28;20189;-84
2023/06/14 11:14:34;;;;;;;2.08;1.98;;;;;;;;;;5079411;28;20197;-84
2023/06/14 11:17:03;;;;;;;2.38;2.20;;;;;;;;;;5079018;28;20201;-84
2023/06/14 11:19:31;;;;;;;2.38;2.20;;;;;;;;;;5078136;28;20628;-86
2023/06/14 11:21:59;;;;;;;3.95;1.77;;;;;;;;;;5081676;28;20421;-85
2023/06/14 11:24:27;;;;;;;2.10;1.95;;;;;;;;;;5081965;28;20264;-85
2023/06/14 11:26:56;;;;;;;1.92;1.83;;;;;;;;;;5080376;28;20229;-85
2023/06/14 11:29:24;;;;;;;1.70;1.60;;;;;;;;;;5078089;28;20237;-84
2023/06/14 11:31:51;;;;;;;2.10;2.00;;;;;;;;;;5079094;28;20201;-85
2023/06/14 11:34:21;;;;;;;2.50;2.30;;;;;;;;;;5080785;28;20654;-86
2023/06/14 11:36:49;;;;;;;2.85;1.92;;;;;;;;;;5078462;28;20221;-84
2023/06/14 11:39:16;;;;;;;4.15;2.20;;;;;;;;;;5080793;28;20212;-84
2023/06/14 11:41:46;;;;;;;2.30;2.10;;;;;;;;;;5081253;28;20346;-85
2023/06/14 11:44:14;;;;;;;2.83;2.33;;;;;;;;;;5079500;28;20295;-85
2023/06/14 11:46:42;;;;;;;2.20;2.00;;;;;;;;;;5079678;28;20659;-84
2023/06/14 11:49:10;;;;;;;2.05;1.95;;;;;;;;;;5080475;28;20562;-85
2023/06/14 11:51:39;;;;;;;2.85;1.90;;;;;;;;;;5080206;28;20661;-85
2023/06/14 11:54:08;;;;;;;1.90;1.80;;;;;;;;;;5079648;28;20201;-85
2023/06/14 11:56:37;;;;;;;1.45;1.35;;;;;;;;;;5080693;28;20697;-85
2023/06/14 11:59:05;;;;;;;1.80;1.70;;;;;;;;;;5081331;28;20280;-85
2023/06/14 12:01:36;;;;;;;2.13;2.00;;;;;;;;;;5080602;28;20223;-85
2023/06/14 12:04:04;;;;;;;1.88;1.70;;;;;;;;;;5079686;28;20234;-85
2023/06/14 12:06:35;;;;;;;2.15;2.05;;;;;;;;;;5079455;28;20304;-85
2023/06/14 12:09:12;;;;;;;1.90;1.80;;;;;;;;;;5078348;28;20602;-84
2023/06/14 12:11:39;;;;;;;2.60;2.35;;;;;;;;;;5078956;28;20549;-84
2023/06/14 12:14:09;;;;;;;2.03;1.92;;;;;;;;;;5078735;28;20582;-84
2023/06/14 12:16:38;;;;;;;2.67;2.10;;;;;;;;;;5077047;28;20256;-84
2023/06/14 12:19:15;;;;;;;3.15;1.63;;;;;;;;;;5077290;28;20205;-85
2023/06/14 12:21:44;;;;;;;2.58;2.38;;;;;;;;;;5077730;28;20733;-84
2023/06/14 12:24:14;;;;;;;2.05;1.83;;;;;;;;;;5078353;28;20239;-84
2023/06/14 12:26:41;;;;;;;2.13;1.90;;;;;;;;;;5077269;28;20235;-84
2023/06/14 12:29:09;;;;;;;2.33;2.13;;;;;;;;;;5075516;28;20670;-85
2023/06/14 12:31:37;;;;;;;2.08;1.90;;;;;;;;;;5075791;28;20254;-84
2023/06/14 12:34:05;;;;;;;1.92;1.83;;;;;;;;;;5077980;28;20243;-84
2023/06/14 12:36:32;;;;;;;3.22;1.85;;;;;;;;;;5076141;28;20244;-84
2023/06/14 12:39:00;;;;;;;2.08;1.98;;;;;;;;;;5075928;28;20724;-84
2023/06/14 12:41:28;;;;;;;1.63;1.52;;;;;;;;;;5077074;28;20287;-85
2023/06/14 12:43:57;;;;;;;1.80;1.70;;;;;;;;;;5076764;28;20315;-84
2023/06/14 12:46:25;;;;;;;1.58;1.48;;;;;;;;;;5077158;28;20221;-85
2023/06/14 12:48:53;;;;;;;2.33;2.13;;;;;;;;;;5077599;28;20205;-84
2023/06/14 12:51:20;;;;;;;1.80;1.70;;;;;;;;;;5076796;28;20243;-84
2023/06/14 12:53:48;;;;;;;2.10;2.00;;;;;;;;;;5077507;28;20617;-84
2023/06/14 12:56:16;;;;;;;2.60;2.40;;;;;;;;;;5076508;28;20359;-84
2023/06/14 12:58:45;;;;;;;2.20;2.10;;;;;;;;;;5076196;28;20205;-84
2023/06/14 13:01:13;;;;;;;2.20;1.90;;;;;;;;;;5076732;28;20291;-84
2023/06/14 13:03:40;;;;;;;1.80;1.70;;;;;;;;;;5076366;28;20252;-84
2023/06/14 13:06:08;;;;;;;1.67;1.58;;;;;;;;;;5076630;28;20253;-84
2023/06/14 13:08:35;;;;;;;2.60;1.75;;;;;;;;;;5076640;28;20237;-83
2023/06/14 13:11:03;;;;;;;1.77;1.67;;;;;;;;;;5075460;28;20243;-84
2023/06/14 13:13:30;;;;;;;1.77;1.67;;;;;;;;;;5077016;28;20232;-83
2023/06/14 13:16:00;;;;;;;2.67;1.92;;;;;;;;;;5078100;28;20253;-83
2023/06/14 13:18:27;;;;;;;1.52;1.42;;;;;;;;;;5076832;28;20205;-83
2023/06/14 13:20:55;;;;;;;1.70;1.50;;;;;;;;;;5076738;28;20201;-84
2023/06/14 13:23:22;;;;;;;1.63;1.50;;;;;;;;;;5076679;28;20252;-84
2023/06/14 13:25:51;;;;;;;1.80;1.70;;;;;;;;;;5077834;28;20259;-83
2023/06/14 13:28:18;;;;;;;1.50;1.33;;;;;;;;;;5079703;28;20265;-84
2023/06/14 13:30:46;;;;;;;1.52;1.42;;;;;;;;;;5080887;28;20268;-84
2023/06/14 13:33:15;;;;;;;1.63;1.40;;;;;;;;;;5080355;28;20575;-83
2023/06/14 13:35:42;;;;;;;1.30;1.30;;;;;;;;;;5079605;28;20235;-85
2023/06/14 13:38:11;;;;;;;2.72;2.38;;;;;;;;;;5079094;28;20260;-86
2023/06/14 13:40:38;;;;;;;1.45;1.35;;;;;;;;;;5099370;28;20208;-84
2023/06/14 13:43:06;;;;;;;1.95;1.75;;;;;;;;;;5094234;28;20297;-84
2023/06/14 13:45:33;;;;;;;1.73;1.63;;;;;;;;;;5080838;28;20307;-84
2023/06/14 13:48:01;;;;;;;1.95;1.85;;;;;;;;;;5080624;28;20229;-85
2023/06/14 13:50:30;;;;;;;1.45;1.40;;;;;;;;;;5080571;28;20280;-85
2023/06/14 13:52:57;;;;;;;1.90;1.80;;;;;;;;;;5081344;28;20197;-85
2023/06/14 13:55:25;;;;;;;1.80;1.70;;;;;;;;;;5080386;28;20221;-85
2023/06/14 13:57:52;;;;;;;1.27;1.20;;;;;;;;;;5081160;28;20259;-85
2023/06/14 14:00:21;;;;;;;1.42;1.30;;;;;;;;;;5079628;28;20296;-84
2023/06/14 14:02:50;;;;;;;1.52;1.20;;;;;;;;;;5080215;28;20263;-83
2023/06/14 14:05:18;;;;;;;1.67;1.58;;;;;;;;;;5079804;28;20274;-83
2023/06/14 14:07:47;;;;;;;1.50;1.40;;;;;;;;;;5080738;28;20197;-84
2023/06/14 14:10:14;;;;;;;1.77;1.52;;;;;;;;;;5080976;28;20661;-84
2023/06/14 14:12:42;;;;;;;1.65;1.55;;;;;;;;;;5080100;28;20232;-84
2023/06/14 14:15:12;;;;;;;1.60;1.50;;;;;;;;;;5080067;28;20308;-84
2023/06/14 14:17:40;;;;;;;1.70;1.60;;;;;;;;;;5080423;28;20372;-83
2023/06/14 14:20:09;;;;;;;1.98;1.88;;;;;;;;;;5080283;28;20213;-84
2023/06/14 14:22:36;;;;;;;1.75;1.65;;;;;;;;;;5079324;28;20200;-83
2023/06/14 14:25:06;;;;;;;2.00;1.60;;;;;;;;;;5080657;28;20244;-82
2023/06/14 14:27:33;;;;;;;1.73;1.60;;;;;;;;;;5076896;28;20211;-84
2023/06/14 14:30:01;;;;;;;1.67;1.58;;;;;;;;;;5077108;28;20239;-84
2023/06/14 14:32:28;;;;;;;2.25;1.40;;;;;;;;;;5076320;28;20280;-84
2023/06/14 14:34:56;;;;;;;1.63;1.50;;;;;;;;;;5076553;28;20303;-84
2023/06/14 14:37:23;;;;;;;1.10;1.10;;;;;;;;;;5077181;28;20211;-84
2023/06/14 14:39:51;;;;;;;1.85;1.75;;;;;;;;;;5076515;28;20200;-84
2023/06/14 14:42:19;;;;;;;1.80;1.70;;;;;;;;;;5076441;28;20631;-84
2023/06/14 14:44:47;;;;;;;1.63;1.52;;;;;;;;;;5076186;28;20690;-84
2023/06/14 14:47:14;;;;;;;1.92;1.60;;;;;;;;;;5075946;28;20299;-84
2023/06/14 14:49:42;;;;;;;1.83;1.40;;;;;;;;;;5075995;28;20231;-84
2023/06/14 14:52:10;;;;;;;1.55;1.45;;;;;;;;;;5076286;28;20204;-83
2023/06/14 14:54:37;;;;;;;1.70;1.60;;;;;;;;;;5076681;28;20626;-84
2023/06/14 14:57:06;;;;;;;1.70;1.60;;;;;;;;;;5075757;28;20677;-83
2023/06/14 14:59:35;;;;;;;1.70;1.60;;;;;;;;;;5076054;28;20208;-84
2023/06/14 15:02:03;;;;;;;2.20;2.10;;;;;;;;;;5076278;28;20291;-83
2023/06/14 15:04:30;;;;;;;1.70;1.60;;;;;;;;;;5075847;28;20608;-84
2023/06/14 15:06:58;;;;;;;1.65;1.55;;;;;;;;;;5076099;28;20295;-84
2023/06/14 15:09:26;;;;;;;1.65;1.55;;;;;;;;;;5076324;28;20204;-83
2023/06/14 15:11:53;;;;;;;1.25;1.25;;;;;;;;;;5076705;28;20243;-84
2023/06/14 15:14:21;;;;;;;1.92;1.83;;;;;;;;;;5075512;28;20288;-83
2023/06/14 15:16:50;;;;;;;1.40;1.30;;;;;;;;;;5076519;28;20693;-83
2023/06/14 15:19:19;;;;;;;2.28;1.75;;;;;;;;;;5076441;28;20239;-83
2023/06/14 15:21:47;;;;;;;1.00;1.00;;;;;;;;;;5077220;28;20288;-83
2023/06/14 15:24:14;;;;;;;1.48;1.38;;;;;;;;;;5077069;28;20256;-83
2023/06/14 15:26:42;;;;;;;1.30;1.30;;;;;;;;;;5076197;28;20280;-83
2023/06/14 15:29:09;;;;;;;1.45;1.35;;;;;;;;;;5076068;28;20657;-84
2023/06/14 15:31:37;;;;;;;1.58;1.48;;;;;;;;;;5075708;28;20634;-83
2023/06/14 15:34:08;;;;;;;1.50;1.40;;;;;;;;;;5076134;28;20303;-83
2023/06/14 15:36:35;;;;;;;1.42;1.33;;;;;;;;;;5075902;28;20303;-84
2023/06/14 15:39:03;;;;;;;1.77;1.63;;;;;;;;;;5076024;28;20291;-83
2023/06/14 15:41:30;;;;;;;1.60;1.48;;;;;;;;;;5075604;28;20205;-83
2023/06/14 15:43:58;;;;;;;1.25;1.23;;;;;;;;;;5075967;28;20312;-83
2023/06/14 15:46:25;;;;;;;1.70;1.60;;;;;;;;;;5074605;28;20264;-84
2023/06/14 15:48:53;;;;;;;1.50;1.40;;;;;;;;;;5076001;28;20284;-84
2023/06/14 15:51:22;;;;;;;1.60;1.50;;;;;;;;;;5075579;28;20208;-84
2023/06/14 15:53:49;;;;;;;1.00;1.00;;;;;;;;;;5076242;28;20228;-84
2023/06/14 15:56:17;;;;;;;0.93;0.93;;;;;;;;;;5075761;28;20227;-84
2023/06/14 15:58:44;;;;;;;1.77;1.67;;;;;;;;;;5076462;28;20238;-84
2023/06/14 16:01:11;;;;;;;1.42;1.33;;;;;;;;;;5076642;28;20229;-83
2023/06/14 16:03:39;;;;;;;1.65;1.55;;;;;;;;;;5075211;28;20291;-83